Main page
METAR-TAF:

METAR-TAF

Airports :

Cairo International Airport

Cairo, Egypt

latitude: 30-08N, longitude: 031-24E, elevation: 64 m

Current weather observation

The report was made 1 hour and 13 minutes ago, at 17:00 UTC
Wind 13 kt from the North/Northwest
Temperature 24°C
Humidity 54%
Pressure 1020 hPa
Visibility 10 km or more
Scattered clouds at a height of 2500 ft

METAR: HECA 211700Z 33013KT 9999 SCT025 24/14 Q1020 NOSIG

Time: 20:13 (18:13 UTC)

Forecast

The report was made 1 hour and 13 minutes ago, at 17:00 UTC
Forecast valid from 21 at 18 UTC to 22 at 24 UTC
Wind 10 kt from the West/Northwest
Visibility 10 km or more
Scattered clouds at a height of 2500 ft
Temporary
from 22 at 00 UTC to 22 at 06 UTC
Wind 3 kt from variable directions
Visibility: 6000 m

TAF: HECA 211700Z 2118/2224 30010KT 9999 SCT025 TEMPO 2200/2206 VRB03KT 6000 NSC

Weather observations and forecasts of more than 4000 airports (METAR and TAF reports).

The available stations are represented by yellow and red dots on the map.

Hover mouse over dot to see the name of the station.

Then click to see weather observations and forecasts.

To change the map : click on the green buttons with a black cross to zoom in, on the green button with a dash to zoom out, or on the green arrows for adjacent maps.


METAR-TAF: